Time;durP1;ratioP1;P1;durP2;ratioP2;P2;SDS_P1;SDS_P2;PMS_P1;PMS_P2;Temp;Humidity;BMP_temperature;BMP_pressure;BME280_temperature;BME280_humidity;BME280_pressure;Samples;Min_cycle;Max_cycle;Signal;HPM_P1;HPM_P2
2021/07/27 00:01:11;;;;;;;4.63;4.17;;;18.90;99.90;;;;;;5072985;28;20155;-70
2021/07/27 00:03:37;;;;;;;5.57;4.13;;;18.80;99.90;;;;;;5072953;28;20164;-70
2021/07/27 00:06:04;;;;;;;3.97;3.53;;;18.80;99.90;;;;;;5074374;28;20473;-70
2021/07/27 00:08:30;;;;;;;4.80;4.03;;;18.90;99.90;;;;;;5072966;28;20405;-70
2021/07/27 00:10:56;;;;;;;4.47;3.53;;;18.90;99.90;;;;;;5072870;28;20390;-70
2021/07/27 00:13:22;;;;;;;5.37;3.30;;;18.80;99.90;;;;;;5072890;28;20995;-70
2021/07/27 00:15:47;;;;;;;4.60;3.70;;;18.80;99.90;;;;;;5072510;28;20217;-70
2021/07/27 00:18:13;;;;;;;4.87;4.10;;;18.80;99.90;;;;;;5072951;28;20175;-69
2021/07/27 00:20:38;;;;;;;5.20;3.70;;;18.80;99.90;;;;;;5074138;28;20182;-70
2021/07/27 00:23:04;;;;;;;4.80;3.90;;;18.80;99.90;;;;;;5072789;28;20246;-70
2021/07/27 00:25:29;;;;;;;4.37;3.47;;;18.80;99.90;;;;;;5072588;28;20202;-70
2021/07/27 00:27:55;;;;;;;3.20;2.73;;;18.80;99.90;;;;;;5072716;28;20232;-70
2021/07/27 00:30:21;;;;;;;6.03;4.37;;;18.80;99.90;;;;;;5072811;28;20155;-70
2021/07/27 00:32:46;;;;;;;4.87;4.00;;;18.80;99.90;;;;;;5071979;28;20339;-70
2021/07/27 00:35:13;;;;;;;5.67;4.50;;;18.80;99.90;;;;;;5073685;28;20171;-69
2021/07/27 00:37:43;;;;;;;5.33;4.10;;;18.80;99.90;;;;;;5072547;28;20237;-70
2021/07/27 00:40:10;;;;;;;6.97;5.57;;;18.80;99.90;;;;;;5072388;28;20398;-70
2021/07/27 00:42:44;;;;;;;5.23;4.30;;;18.80;99.90;;;;;;5072417;28;20389;-70
2021/07/27 00:45:11;;;;;;;4.37;3.90;;;18.90;99.90;;;;;;5072174;28;20467;-70
2021/07/27 00:47:36;;;;;;;5.87;4.07;;;18.90;99.90;;;;;;5072416;28;20405;-69
2021/07/27 00:50:02;;;;;;;6.33;3.60;;;18.80;99.90;;;;;;5073589;28;20436;-70
2021/07/27 00:52:29;;;;;;;5.43;4.17;;;18.80;99.90;;;;;;5072421;28;20624;-70
2021/07/27 00:54:54;;;;;;;6.40;4.83;;;18.80;99.90;;;;;;5072397;28;20397;-70
2021/07/27 00:57:23;;;;;;;5.27;4.37;;;18.80;99.90;;;;;;5072331;28;20394;-70
2021/07/27 00:59:49;;;;;;;5.40;3.60;;;18.70;99.90;;;;;;5072273;28;20281;-70
2021/07/27 01:02:14;;;;;;;6.97;4.30;;;18.80;99.90;;;;;;5071620;28;21004;-70
2021/07/27 01:04:40;;;;;;;4.10;3.70;;;18.80;99.90;;;;;;5072282;28;20673;-70
2021/07/27 01:07:06;;;;;;;5.23;3.60;;;18.70;99.90;;;;;;5072005;28;20202;-70
2021/07/27 01:09:31;;;;;;;7.70;5.07;;;18.70;99.90;;;;;;5072211;28;20225;-70
2021/07/27 01:11:59;;;;;;;5.33;4.50;;;18.80;99.90;;;;;;5072198;28;20683;-70
2021/07/27 01:14:25;;;;;;;5.60;4.67;;;18.70;99.90;;;;;;5072252;28;20165;-70
2021/07/27 01:16:50;;;;;;;6.40;4.70;;;18.70;99.90;;;;;;5072077;28;20401;-70
2021/07/27 01:19:32;;;;;;;6.90;4.73;;;18.80;99.90;;;;;;5073539;28;20183;-70
2021/07/27 01:46:35;;;;;;;8.70;5.90;;;18.80;99.90;;;;;;5090553;27;20874;-71
2021/07/27 01:49:04;;;;;;;7.83;5.83;;;18.80;99.90;;;;;;5090750;28;20484;-71
2021/07/27 01:51:31;;;;;;;10.07;6.33;;;18.80;99.90;;;;;;5089955;28;20381;-71
2021/07/27 01:53:57;;;;;;;7.70;5.57;;;18.80;99.90;;;;;;5090103;28;20965;-71
2021/07/27 01:56:24;;;;;;;10.43;7.30;;;18.80;99.90;;;;;;5089821;28;20381;-71
2021/07/27 01:58:51;;;;;;;12.80;7.20;;;18.80;99.90;;;;;;5077233;28;20198;-71
2021/07/27 02:01:20;;;;;;;11.10;7.33;;;18.80;99.90;;;;;;5070132;28;20397;-72
2021/07/27 02:03:45;;;;;;;9.00;7.10;;;18.70;99.90;;;;;;5068868;28;20496;-71
2021/07/27 02:06:11;;;;;;;10.07;7.63;;;18.70;99.90;;;;;;5069370;28;20453;-71
2021/07/27 02:08:36;;;;;;;10.33;8.03;;;18.70;99.90;;;;;;5069515;28;20641;-71
2021/07/27 02:11:04;;;;;;;10.70;7.63;;;18.70;99.90;;;;;;5069498;28;20159;-71
2021/07/27 02:16:07;;;;;;;12.47;7.23;;;18.60;99.90;;;;;;5075535;28;20582;-71
2021/07/27 02:18:33;;;;;;;12.10;8.37;;;18.60;99.90;;;;;;5069910;28;20946;-71
2021/07/27 02:20:58;;;;;;;11.87;7.13;;;18.50;99.90;;;;;;5069742;28;20169;-71
2021/07/27 02:23:26;;;;;;;11.07;8.37;;;18.50;99.90;;;;;;5069945;28;20534;-71
2021/07/27 02:25:51;;;;;;;8.60;7.10;;;18.50;99.90;;;;;;5069693;28;20166;-71
2021/07/27 02:28:17;;;;;;;10.10;7.80;;;18.50;99.90;;;;;;5069509;28;20560;-71
2021/07/27 02:30:51;;;;;;;9.03;7.57;;;18.50;99.90;;;;;;5070348;28;20167;-71
2021/07/27 02:33:19;;;;;;;15.57;9.23;;;18.60;99.90;;;;;;5068633;28;20743;-71
2021/07/27 02:35:44;;;;;;;10.77;8.13;;;18.60;99.90;;;;;;5069366;28;20442;-71
2021/07/27 02:38:11;;;;;;;11.40;8.40;;;18.60;99.90;;;;;;5069617;28;20412;-71
2021/07/27 02:40:36;;;;;;;12.20;10.03;;;18.50;99.90;;;;;;5069431;28;20183;-71
2021/07/27 02:43:04;;;;;;;11.43;8.37;;;18.50;99.90;;;;;;5069217;28;20832;-71
2021/07/27 02:45:30;;;;;;;14.00;9.30;;;18.50;99.90;;;;;;5070152;28;20253;-71
2021/07/27 02:47:56;;;;;;;13.10;10.80;;;18.50;99.90;;;;;;5069082;28;20414;-71
2021/07/27 02:50:22;;;;;;;13.73;9.50;;;18.50;99.90;;;;;;5069049;28;20586;-71
2021/07/27 02:52:49;;;;;;;14.50;10.63;;;18.50;99.90;;;;;;5069410;28;20413;-71
2021/07/27 02:55:14;;;;;;;13.63;10.67;;;18.50;99.90;;;;;;5068992;28;20237;-71
2021/07/27 02:57:40;;;;;;;14.50;10.20;;;18.50;99.90;;;;;;5069035;28;20477;-71
2021/07/27 03:00:07;;;;;;;11.97;8.93;;;18.50;99.90;;;;;;5069845;28;20267;-71
2021/07/27 03:05:11;;;;;;;14.80;9.73;;;18.50;99.90;;;;;;5069810;28;20873;-70
2021/07/27 03:07:49;;;;;;;13.87;9.60;;;18.40;99.90;;;;;;5050762;28;20503;-70
2021/07/27 03:10:17;;;;;;;14.63;10.57;;;18.40;99.90;;;;;;5049558;28;20827;-70
2021/07/27 03:15:25;;;;;;;15.10;9.70;;;18.40;99.90;;;;;;5069865;28;20520;-70
2021/07/27 03:17:54;;;;;;;12.27;9.60;;;18.40;99.90;;;;;;5069940;28;20500;-70
2021/07/27 03:20:20;;;;;;;14.07;9.87;;;18.40;99.90;;;;;;5069544;28;20445;-70
2021/07/27 03:22:46;;;;;;;18.97;10.43;;;18.40;99.90;;;;;;5064983;28;20787;-70
2021/07/27 03:25:15;;;;;;;14.00;10.50;;;18.40;99.90;;;;;;5049754;28;20405;-70
2021/07/27 03:27:42;;;;;;;14.57;10.43;;;18.40;99.90;;;;;;5049477;28;20176;-70
2021/07/27 03:30:09;;;;;;;16.83;11.20;;;18.40;99.90;;;;;;5049667;28;20391;-70
2021/07/27 03:32:36;;;;;;;15.57;11.67;;;18.50;99.90;;;;;;5048159;28;20409;-70
2021/07/27 03:35:03;;;;;;;16.60;10.43;;;18.50;99.90;;;;;;5049322;28;21039;-70
2021/07/27 03:37:28;;;;;;;15.43;11.23;;;18.50;99.90;;;;;;5049443;28;20435;-70
2021/07/27 03:39:54;;;;;;;15.20;11.00;;;18.50;99.90;;;;;;5048423;28;20450;-70
2021/07/27 03:42:27;;;;;;;15.90;12.30;;;18.50;99.90;;;;;;5049374;28;20238;-70
2021/07/27 03:44:57;;;;;;;12.80;10.23;;;18.50;99.90;;;;;;5049644;28;20176;-70
2021/07/27 03:47:23;;;;;;;14.53;10.20;;;18.50;99.90;;;;;;5049271;28;20407;-70
2021/07/27 03:49:48;;;;;;;15.67;10.87;;;18.50;99.90;;;;;;5049513;28;20565;-70
2021/07/27 03:52:14;;;;;;;13.33;10.50;;;18.50;99.90;;;;;;5049419;28;20449;-70
2021/07/27 03:54:39;;;;;;;12.53;11.17;;;18.50;99.90;;;;;;5048990;28;20204;-70
2021/07/27 03:57:05;;;;;;;14.93;11.97;;;18.50;99.90;;;;;;5043261;28;20259;-70
2021/07/27 03:59:31;;;;;;;19.43;13.80;;;18.50;99.90;;;;;;5029315;28;20247;-70
2021/07/27 04:01:58;;;;;;;16.47;12.17;;;18.50;99.90;;;;;;5027791;28;20185;-70
2021/07/27 04:04:23;;;;;;;17.27;13.30;;;18.50;99.90;;;;;;5029304;28;20921;-70
2021/07/27 04:06:49;;;;;;;18.30;13.57;;;18.50;99.90;;;;;;5029098;28;20492;-70
2021/07/27 04:09:15;;;;;;;18.90;14.23;;;18.50;99.90;;;;;;5029165;28;20212;-70
2021/07/27 04:11:41;;;;;;;22.50;14.90;;;18.50;99.90;;;;;;5030762;28;20222;-70
2021/07/27 04:14:10;;;;;;;22.47;17.53;;;18.50;99.90;;;;;;5035306;28;20467;-70
2021/07/27 04:16:37;;;;;;;19.30;15.37;;;18.50;99.90;;;;;;5067989;28;20418;-70
2021/07/27 04:19:03;;;;;;;18.53;13.63;;;18.50;99.90;;;;;;5068434;28;20424;-70
2021/07/27 04:21:29;;;;;;;21.13;15.03;;;18.50;99.90;;;;;;5068490;28;20394;-70
2021/07/27 04:23:58;;;;;;;17.30;13.20;;;18.40;99.90;;;;;;5068594;28;20262;-70
2021/07/27 04:26:24;;;;;;;17.73;13.67;;;18.40;99.90;;;;;;5056998;28;20613;-70
2021/07/27 04:28:49;;;;;;;18.17;13.40;;;18.30;99.90;;;;;;5055861;28;20464;-70
2021/07/27 04:31:16;;;;;;;18.60;14.10;;;18.30;99.90;;;;;;5033115;28;20224;-70
2021/07/27 04:33:41;;;;;;;20.03;12.97;;;18.40;99.90;;;;;;5015302;28;20228;-70
2021/07/27 04:38:43;;;;;;;17.77;13.40;;;18.40;99.90;;;;;;5082813;27;20559;-71
2021/07/27 04:41:11;;;;;;;21.87;14.40;;;18.30;99.90;;;;;;5046290;28;20411;-71
2021/07/27 04:43:38;;;;;;;17.57;13.73;;;18.30;99.90;;;;;;5041120;28;20645;-71
2021/07/27 04:46:05;;;;;;;21.00;13.67;;;18.30;99.90;;;;;;5049167;28;20421;-71
2021/07/27 04:48:31;;;;;;;17.57;12.60;;;18.30;99.90;;;;;;5039265;28;20427;-71
2021/07/27 04:50:57;;;;;;;15.03;11.53;;;18.40;99.90;;;;;;5048240;28;20422;-71
2021/07/27 04:53:24;;;;;;;18.67;13.37;;;18.40;99.90;;;;;;5049326;28;20602;-71
2021/07/27 04:55:51;;;;;;;16.37;11.90;;;18.40;99.90;;;;;;5046221;28;20423;-71
2021/07/27 04:58:17;;;;;;;13.17;11.27;;;18.50;99.90;;;;;;5059753;28;20468;-71
2021/07/27 05:00:43;;;;;;;16.43;10.40;;;18.60;99.90;;;;;;5048279;28;20396;-71
2021/07/27 05:03:09;;;;;;;15.00;11.40;;;18.60;99.90;;;;;;5031408;28;20470;-71
2021/07/27 05:05:35;;;;;;;14.57;10.37;;;18.70;99.90;;;;;;5029608;28;20168;-71
2021/07/27 05:08:01;;;;;;;13.20;11.00;;;18.70;99.90;;;;;;5029715;28;20391;-71
2021/07/27 05:10:27;;;;;;;11.40;8.80;;;18.70;99.90;;;;;;5029708;28;20399;-71
2021/07/27 05:12:53;;;;;;;10.63;8.53;;;18.80;99.90;;;;;;5028997;28;20929;-71
2021/07/27 05:15:19;;;;;;;10.50;7.80;;;18.90;99.90;;;;;;5038728;28;20554;-71
2021/07/27 05:17:45;;;;;;;10.77;7.43;;;19.00;99.90;;;;;;5027447;28;20693;-71
2021/07/27 05:20:12;;;;;;;8.30;6.57;;;19.10;99.90;;;;;;5027375;28;20183;-71
2021/07/27 05:22:37;;;;;;;8.87;6.20;;;19.10;99.90;;;;;;5026633;28;20511;-71
2021/07/27 05:25:04;;;;;;;11.53;6.87;;;19.10;99.90;;;;;;5029047;28;20996;-71
2021/07/27 05:27:34;;;;;;;10.87;6.70;;;19.10;99.90;;;;;;5028016;28;20176;-71
2021/07/27 05:29:59;;;;;;;9.50;7.10;;;19.10;99.90;;;;;;5035662;28;20448;-71
2021/07/27 05:32:25;;;;;;;7.90;6.23;;;19.10;99.90;;;;;;5024331;28;20427;-71
2021/07/27 05:34:51;;;;;;;9.00;6.87;;;19.10;99.90;;;;;;5025196;28;20640;-71
2021/07/27 05:37:17;;;;;;;10.27;6.53;;;19.10;99.90;;;;;;5024190;28;20204;-71
2021/07/27 05:39:43;;;;;;;9.50;7.10;;;19.10;99.90;;;;;;5025681;28;21329;-71
2021/07/27 05:42:08;;;;;;;9.37;6.83;;;19.00;99.90;;;;;;5033849;28;20587;-71
2021/07/27 05:44:34;;;;;;;9.00;6.87;;;19.00;99.90;;;;;;5034979;28;20207;-71
2021/07/27 05:47:00;;;;;;;12.77;7.30;;;19.10;99.90;;;;;;5029110;28;20247;-71
2021/07/27 05:49:26;;;;;;;8.60;6.37;;;19.00;99.90;;;;;;5021077;28;20821;-71
2021/07/27 05:51:52;;;;;;;8.90;7.33;;;19.10;99.90;;;;;;5020737;28;20195;-71
2021/07/27 05:54:19;;;;;;;9.23;7.57;;;19.20;99.90;;;;;;5014801;28;20424;-71
2021/07/27 05:56:47;;;;;;;7.53;6.03;;;19.20;99.90;;;;;;5012764;28;20865;-71
2021/07/27 05:59:13;;;;;;;7.80;6.00;;;19.30;99.90;;;;;;5022014;28;20450;-71
2021/07/27 06:01:39;;;;;;;11.23;6.10;;;19.50;99.90;;;;;;5021636;28;20427;-71
2021/07/27 06:04:04;;;;;;;8.30;5.80;;;19.60;99.90;;;;;;5034183;28;20518;-71
2021/07/27 06:06:33;;;;;;;8.70;6.20;;;19.80;99.90;;;;;;5018271;28;20181;-71
2021/07/27 06:09:00;;;;;;;7.57;5.73;;;19.80;99.90;;;;;;5022747;28;20192;-71
2021/07/27 06:11:29;;;;;;;6.37;5.30;;;19.90;99.90;;;;;;5013683;28;20432;-71
2021/07/27 06:13:54;;;;;;;8.90;6.93;;;20.00;99.90;;;;;;5014524;28;20428;-71
2021/07/27 06:16:20;;;;;;;7.80;5.90;;;20.00;99.90;;;;;;5013662;28;20420;-71
2021/07/27 06:18:45;;;;;;;7.80;6.00;;;20.10;99.90;;;;;;5009743;28;20199;-71
2021/07/27 06:21:11;;;;;;;9.20;5.80;;;20.20;99.90;;;;;;5015801;28;20175;-71
2021/07/27 06:23:37;;;;;;;8.27;6.43;;;20.30;99.90;;;;;;5011519;28;20173;-71
2021/07/27 06:26:05;;;;;;;6.60;4.50;;;20.30;99.90;;;;;;5013728;28;20193;-71
2021/07/27 06:28:31;;;;;;;6.70;5.53;;;20.50;99.90;;;;;;5013642;28;20941;-71
2021/07/27 06:30:56;;;;;;;4.97;3.87;;;20.60;99.90;;;;;;5010722;28;21205;-71
2021/07/27 06:33:22;;;;;;;6.97;5.50;;;20.70;99.90;;;;;;5013199;28;20416;-69
2021/07/27 06:35:47;;;;;;;4.90;3.87;;;20.90;99.90;;;;;;5006432;28;20193;-69
2021/07/27 06:38:13;;;;;;;5.57;4.50;;;21.00;99.90;;;;;;5007450;28;20705;-72
2021/07/27 06:40:39;;;;;;;7.03;3.93;;;21.10;99.90;;;;;;5012254;28;20606;-72
2021/07/27 06:43:05;;;;;;;5.30;3.60;;;21.20;99.90;;;;;;5010669;28;20232;-71
2021/07/27 06:45:31;;;;;;;4.57;3.73;;;21.30;99.90;;;;;;5011459;28;20626;-71
2021/07/27 06:47:56;;;;;;;5.33;3.80;;;21.40;99.90;;;;;;5014482;28;20429;-71
2021/07/27 06:50:22;;;;;;;6.53;5.57;;;21.50;99.90;;;;;;5012407;28;20181;-71
2021/07/27 06:52:47;;;;;;;7.50;4.90;;;21.50;99.90;;;;;;5006870;28;20216;-71
2021/07/27 06:55:17;;;;;;;6.57;5.47;;;21.50;99.90;;;;;;5011786;28;20769;-71
2021/07/27 06:57:43;;;;;;;8.00;4.60;;;21.50;99.90;;;;;;5012124;28;20646;-71
2021/07/27 07:00:09;;;;;;;5.90;5.00;;;21.50;99.90;;;;;;5010315;28;20531;-72
2021/07/27 07:02:35;;;;;;;8.87;4.97;;;21.50;99.90;;;;;;5009151;28;20178;-71
2021/07/27 07:05:00;;;;;;;5.67;5.07;;;21.50;99.90;;;;;;5008400;28;20425;-71
2021/07/27 07:07:26;;;;;;;5.33;4.33;;;21.60;99.90;;;;;;5011344;28;20425;-71
2021/07/27 07:09:51;;;;;;;8.00;5.97;;;21.60;99.90;;;;;;5008164;28;20181;-72
2021/07/27 07:12:17;;;;;;;6.03;5.03;;;21.70;99.90;;;;;;5007539;28;20252;-72
2021/07/27 07:14:42;;;;;;;7.13;4.40;;;21.80;99.90;;;;;;5010212;28;20726;-71
2021/07/27 07:17:11;;;;;;;6.40;5.10;;;21.90;99.90;;;;;;5011754;28;20550;-71
2021/07/27 07:19:36;;;;;;;5.10;4.60;;;22.00;99.90;;;;;;5007363;28;20166;-71
2021/07/27 07:22:02;;;;;;;5.47;4.40;;;22.10;99.90;;;;;;5012506;28;20481;-71
2021/07/27 07:24:27;;;;;;;8.13;5.57;;;22.30;99.90;;;;;;5009973;28;20177;-71
2021/07/27 07:26:53;;;;;;;6.50;5.47;;;22.40;99.90;;;;;;5019082;28;20192;-71
2021/07/27 07:29:18;;;;;;;6.00;4.90;;;22.50;99.90;;;;;;5013163;28;20579;-71
2021/07/27 07:31:44;;;;;;;8.40;5.57;;;22.70;99.90;;;;;;5010358;28;20184;-71
2021/07/27 07:34:09;;;;;;;5.70;4.27;;;22.80;99.90;;;;;;5013931;28;20165;-71
2021/07/27 07:36:35;;;;;;;5.47;4.83;;;23.00;99.90;;;;;;5011988;28;20193;-72
2021/07/27 07:39:00;;;;;;;4.97;3.80;;;23.30;99.90;;;;;;5016048;28;20233;-72
2021/07/27 07:41:28;;;;;;;6.30;4.70;;;23.60;99.90;;;;;;5006116;28;20512;-72
2021/07/27 07:43:53;;;;;;;4.73;4.27;;;23.90;99.90;;;;;;5006226;28;20181;-72
2021/07/27 07:46:19;;;;;;;4.70;4.20;;;24.10;99.90;;;;;;5012280;28;20420;-72
2021/07/27 07:48:44;;;;;;;4.60;3.97;;;24.10;99.90;;;;;;5007130;28;20186;-72
2021/07/27 07:51:10;;;;;;;4.57;4.07;;;23.80;99.90;;;;;;5011331;28;20245;-72
2021/07/27 07:53:35;;;;;;;6.10;4.83;;;23.70;99.90;;;;;;5007469;28;20685;-72
2021/07/27 07:56:01;;;;;;;5.33;3.60;;;23.60;99.90;;;;;;5010524;28;20185;-71
2021/07/27 07:58:27;;;;;;;4.90;4.40;;;23.40;99.90;;;;;;5009583;28;20248;-71
2021/07/27 08:00:52;;;;;;;6.30;4.13;;;23.30;99.90;;;;;;5008860;28;20204;-72
2021/07/27 08:03:18;;;;;;;4.17;3.73;;;23.10;99.90;;;;;;5021496;28;20195;-71
2021/07/27 08:05:43;;;;;;;4.77;3.90;;;23.00;99.90;;;;;;5014323;28;20188;-71
2021/07/27 08:08:09;;;;;;;4.70;4.30;;;22.90;99.90;;;;;;5007706;28;20585;-71
2021/07/27 08:10:34;;;;;;;4.17;3.77;;;22.90;99.90;;;;;;5010793;28;20195;-71
2021/07/27 08:13:00;;;;;;;5.67;4.23;;;22.90;99.90;;;;;;5008499;28;20201;-71
2021/07/27 08:15:26;;;;;;;5.13;3.77;;;23.00;99.90;;;;;;5011140;28;20260;-71
2021/07/27 08:17:53;;;;;;;6.17;4.47;;;23.00;99.90;;;;;;5013109;28;20561;-71
2021/07/27 08:20:19;;;;;;;4.37;3.97;;;23.30;99.90;;;;;;5012393;28;20762;-71
2021/07/27 08:22:45;;;;;;;4.03;3.67;;;23.90;99.90;;;;;;5022000;28;20467;-72
2021/07/27 08:25:15;;;;;;;4.10;2.70;;;24.90;99.90;;;;;;5021040;28;20956;-72
2021/07/27 08:27:41;;;;;;;5.53;3.93;;;26.10;99.90;;;;;;5010417;28;20172;-72
2021/07/27 08:30:08;;;;;;;4.13;2.73;;;27.20;99.90;;;;;;5010358;28;20977;-70
2021/07/27 08:32:33;;;;;;;3.37;2.90;;;28.20;98.70;;;;;;5018261;28;20435;-70
2021/07/27 08:34:59;;;;;;;4.23;3.40;;;29.50;97.10;;;;;;5013444;28;20515;-70
2021/07/27 08:37:24;;;;;;;7.00;3.20;;;30.60;93.50;;;;;;5012505;28;20236;-70
2021/07/27 08:39:50;;;;;;;5.33;3.70;;;31.40;88.60;;;;;;5021980;28;20185;-70
2021/07/27 08:42:17;;;;;;;6.20;3.70;;;32.10;87.00;;;;;;5007666;28;20642;-70
2021/07/27 08:44:45;;;;;;;4.97;4.10;;;32.50;77.30;;;;;;5010981;28;20638;-70
2021/07/27 08:47:10;;;;;;;4.37;3.97;;;33.00;77.70;;;;;;5016430;28;20439;-70
2021/07/27 08:49:36;;;;;;;5.93;5.33;;;33.60;70.70;;;;;;5009886;28;20444;-70
2021/07/27 08:52:03;;;;;;;5.83;5.30;;;33.80;67.50;;;;;;5010204;28;20646;-70
2021/07/27 08:54:29;;;;;;;6.70;5.17;;;33.90;66.30;;;;;;5008165;28;20558;-70
2021/07/27 08:56:55;;;;;;;4.20;3.70;;;34.00;66.70;;;;;;5011297;28;20455;-70
2021/07/27 08:59:22;;;;;;;6.13;5.50;;;33.70;63.90;;;;;;5013497;28;20211;-70
2021/07/27 09:01:50;;;;;;;10.57;7.83;;;33.10;66.10;;;;;;5016850;28;20181;-71
2021/07/27 09:04:25;;;;;;;9.23;8.33;;;31.90;65.50;;;;;;5010978;28;20450;-70
2021/07/27 09:07:07;;;;;;;8.83;7.90;;;31.50;67.60;;;;;;5009002;28;20435;-70
2021/07/27 09:09:34;;;;;;;9.90;8.47;;;31.70;69.90;;;;;;5012018;28;20881;-70
2021/07/27 09:12:02;;;;;;;9.00;7.97;;;32.10;69.90;;;;;;5010825;28;20925;-70
2021/07/27 09:14:28;;;;;;;11.80;9.13;;;32.30;67.20;;;;;;5008641;28;20549;-70
2021/07/27 09:16:56;;;;;;;11.50;8.50;;;32.60;67.30;;;;;;5010663;28;20483;-70
2021/07/27 09:19:22;;;;;;;11.80;8.50;;;32.50;65.40;;;;;;5005220;28;21061;-70
2021/07/27 09:21:48;;;;;;;11.67;9.23;;;32.80;65.60;;;;;;5009869;28;20416;-70
2021/07/27 09:26:59;;;;;;;14.27;12.17;;;32.70;63.30;;;;;;5144681;27;20531;-70
2021/07/27 09:29:27;;;;;;;11.73;9.33;;;32.40;66.00;;;;;;5127187;27;20411;-70
2021/07/27 09:31:54;;;;;;;10.17;9.17;;;32.40;67.00;;;;;;5125741;27;20414;-71
2021/07/27 09:34:22;;;;;;;9.43;8.47;;;32.20;65.30;;;;;;5123275;28;20422;-71
2021/07/27 09:36:59;;;;;;;10.10;8.40;;;32.20;66.40;;;;;;5127124;27;20495;-72
2021/07/27 09:39:25;;;;;;;9.60;8.60;;;32.50;69.90;;;;;;5123688;28;20447;-71
2021/07/27 09:42:06;;;;;;;10.10;9.07;;;32.60;67.50;;;;;;5127290;28;20783;-71
2021/07/27 09:44:32;;;;;;;11.17;9.97;;;32.70;65.70;;;;;;5127708;28;20226;-71
2021/07/27 09:46:59;;;;;;;10.10;9.00;;;32.80;63.10;;;;;;5126659;28;20431;-71
2021/07/27 09:49:26;;;;;;;9.37;8.30;;;31.60;64.30;;;;;;5120985;27;20178;-71
2021/07/27 09:51:52;;;;;;;10.40;9.30;;;31.00;68.60;;;;;;5124076;27;20415;-71
2021/07/27 09:54:19;;;;;;;10.80;7.23;;;30.80;69.70;;;;;;5126440;27;20415;-71
2021/07/27 09:56:45;;;;;;;8.50;7.30;;;30.60;72.30;;;;;;5126423;27;20427;-71
2021/07/27 09:59:14;;;;;;;10.83;8.20;;;30.40;72.20;;;;;;5119944;28;20459;-70
2021/07/27 10:01:47;;;;;;;7.90;6.30;;;30.30;73.90;;;;;;5104924;28;20436;-70
2021/07/27 10:04:21;;;;;;;8.50;6.20;;;30.10;71.50;;;;;;5108590;28;20446;-72
2021/07/27 10:06:47;;;;;;;8.27;6.70;;;29.80;71.20;;;;;;5107644;28;20464;-73
2021/07/27 10:09:23;;;;;;;9.43;6.47;;;29.80;71.50;;;;;;5108502;28;20442;-71
2021/07/27 10:11:49;;;;;;;8.63;7.10;;;29.70;73.10;;;;;;5109932;28;20506;-71
2021/07/27 10:14:16;;;;;;;8.03;6.67;;;29.60;72.20;;;;;;5106095;28;20499;-73
2021/07/27 10:16:42;;;;;;;6.40;4.90;;;29.60;74.60;;;;;;5104675;28;20174;-72
2021/07/27 10:19:16;;;;;;;8.03;5.80;;;29.70;73.40;;;;;;5104715;28;20435;-71
2021/07/27 10:21:43;;;;;;;8.47;6.63;;;29.80;75.30;;;;;;5107614;28;20436;-71
2021/07/27 10:24:14;;;;;;;8.73;7.37;;;29.70;72.90;;;;;;5101411;28;20765;-71
2021/07/27 10:26:41;;;;;;;10.23;7.83;;;29.30;72.00;;;;;;5103696;28;20491;-71
2021/07/27 10:29:06;;;;;;;8.50;7.60;;;28.80;73.80;;;;;;5104253;28;20489;-71
2021/07/27 10:34:12;;;;;;;9.13;8.00;;;28.50;74.50;;;;;;5063769;28;20657;-72
2021/07/27 10:36:40;;;;;;;9.53;7.17;;;27.20;82.40;;;;;;5044548;28;20947;-72
2021/07/27 10:41:50;;;;;;;12.90;10.17;;;27.00;91.10;;;;;;5121763;27;20551;-72
2021/07/27 10:44:20;;;;;;;13.37;11.13;;;26.30;99.90;;;;;;5105341;28;20434;-73
2021/07/27 10:46:48;;;;;;;13.60;11.23;;;26.00;99.90;;;;;;5106869;28;20432;-73
2021/07/27 10:49:21;;;;;;;13.67;10.57;;;25.80;99.90;;;;;;5107121;28;20451;-73
2021/07/27 10:51:47;;;;;;;11.90;10.23;;;25.60;99.90;;;;;;5103665;28;20471;-73
2021/07/27 10:54:16;;;;;;;13.40;10.40;;;25.50;99.90;;;;;;5105762;28;20432;-73
2021/07/27 10:56:56;;;;;;;13.17;10.63;;;25.30;99.90;;;;;;5100586;28;20542;-73
2021/07/27 10:59:24;;;;;;;16.00;10.40;;;25.20;99.90;;;;;;5106115;28;20822;-73
2021/07/27 11:01:51;;;;;;;10.33;9.23;;;25.10;99.90;;;;;;5104539;28;20505;-72
2021/07/27 11:04:17;;;;;;;10.90;8.70;;;25.20;99.90;;;;;;5101897;28;20489;-72
2021/07/27 11:06:43;;;;;;;9.50;7.80;;;25.20;99.90;;;;;;5099442;28;20428;-72
2021/07/27 11:09:12;;;;;;;6.27;5.67;;;25.20;99.90;;;;;;5109518;28;20942;-73
2021/07/27 11:11:46;;;;;;;7.00;6.20;;;25.10;99.90;;;;;;5108090;28;20441;-72
2021/07/27 11:14:27;;;;;;;7.00;6.30;;;25.00;99.90;;;;;;5097997;28;20427;-72
2021/07/27 11:16:53;;;;;;;7.80;7.00;;;25.00;99.90;;;;;;5104855;28;20427;-73
2021/07/27 11:19:28;;;;;;;7.20;6.40;;;25.10;99.90;;;;;;5105427;28;20439;-73
2021/07/27 11:21:55;;;;;;;6.93;6.00;;;25.20;99.90;;;;;;5103296;28;20218;-73
2021/07/27 11:24:21;;;;;;;6.87;5.80;;;25.20;99.90;;;;;;5106326;28;20430;-73
2021/07/27 11:26:52;;;;;;;8.20;5.30;;;25.20;99.90;;;;;;5108340;28;20900;-73
2021/07/27 11:29:18;;;;;;;6.03;5.23;;;25.10;99.90;;;;;;5104341;28;20428;-73
2021/07/27 11:31:48;;;;;;;7.10;6.40;;;25.10;99.90;;;;;;5103161;28;20424;-73
2021/07/27 11:34:24;;;;;;;6.73;4.60;;;25.00;99.90;;;;;;5102215;28;20530;-73
2021/07/27 11:36:52;;;;;;;7.30;5.20;;;24.80;99.90;;;;;;5102731;28;20416;-73
2021/07/27 11:39:18;;;;;;;6.63;5.60;;;24.70;99.90;;;;;;5102018;28;20436;-73
2021/07/27 11:41:43;;;;;;;5.90;4.83;;;24.70;99.90;;;;;;5099592;28;20817;-73
2021/07/27 11:44:09;;;;;;;6.07;5.03;;;24.70;99.90;;;;;;5106995;28;20263;-73
2021/07/27 11:46:34;;;;;;;5.63;4.90;;;24.60;99.90;;;;;;5101453;27;20177;-73
2021/07/27 11:49:00;;;;;;;5.63;5.13;;;24.60;99.90;;;;;;5102148;28;20182;-73
2021/07/27 11:51:30;;;;;;;5.70;5.20;;;24.50;99.90;;;;;;5095909;28;20188;-73
2021/07/27 11:53:56;;;;;;;6.27;5.30;;;24.60;99.90;;;;;;5086927;28;20178;-73
2021/07/27 11:56:23;;;;;;;5.37;4.87;;;24.50;99.90;;;;;;5092254;28;20432;-73
2021/07/27 11:58:58;;;;;;;5.87;5.27;;;24.50;99.90;;;;;;5084856;28;20436;-73
2021/07/27 12:01:35;;;;;;;6.80;6.10;;;24.50;99.90;;;;;;5088300;28;20812;-73
2021/07/27 12:04:00;;;;;;;5.93;5.17;;;24.50;99.90;;;;;;5086826;28;20902;-73
2021/07/27 12:06:26;;;;;;;7.40;6.20;;;24.50;99.90;;;;;;5092911;28;20429;-73
2021/07/27 12:08:51;;;;;;;6.20;5.33;;;24.40;99.90;;;;;;5096629;28;20166;-73
2021/07/27 12:11:17;;;;;;;6.30;5.70;;;24.40;99.90;;;;;;5089932;28;20210;-73
2021/07/27 12:13:42;;;;;;;5.60;5.10;;;24.40;99.90;;;;;;5089749;28;20197;-73
2021/07/27 12:16:08;;;;;;;5.50;5.00;;;24.40;99.90;;;;;;5087982;28;20177;-73
2021/07/27 12:18:34;;;;;;;6.77;5.60;;;24.40;99.90;;;;;;5095460;28;20269;-73
2021/07/27 12:20:59;;;;;;;6.20;5.53;;;24.40;99.90;;;;;;5085761;28;20210;-73
2021/07/27 12:23:25;;;;;;;6.37;5.43;;;24.40;99.90;;;;;;5088536;28;20185;-73
2021/07/27 12:25:50;;;;;;;8.30;5.83;;;24.50;99.90;;;;;;5090759;28;20175;-73
2021/07/27 12:28:16;;;;;;;7.03;5.33;;;24.50;99.90;;;;;;5087452;28;20179;-73
2021/07/27 12:30:42;;;;;;;6.00;5.40;;;24.50;99.90;;;;;;5093950;28;20171;-73
2021/07/27 12:33:10;;;;;;;5.33;4.83;;;24.50;99.90;;;;;;5093754;28;21035;-73
2021/07/27 12:35:36;;;;;;;5.77;5.17;;;24.60;99.90;;;;;;5087868;28;20186;-73
2021/07/27 12:38:02;;;;;;;7.47;5.43;;;24.60;99.90;;;;;;5092178;28;20445;-74
2021/07/27 12:40:27;;;;;;;6.60;5.43;;;24.60;99.90;;;;;;5093080;28;20517;-73
2021/07/27 12:42:53;;;;;;;4.47;3.67;;;24.60;99.90;;;;;;5090790;28;20627;-73
2021/07/27 12:45:18;;;;;;;4.63;4.17;;;24.60;99.90;;;;;;5086165;28;20209;-73
2021/07/27 12:47:45;;;;;;;6.70;4.23;;;24.50;99.90;;;;;;5093969;28;20189;-73
2021/07/27 12:50:11;;;;;;;3.23;2.80;;;24.60;99.90;;;;;;5091433;28;20684;-73
2021/07/27 12:52:37;;;;;;;5.03;4.27;;;24.70;99.90;;;;;;5089982;28;20433;-73
2021/07/27 12:55:03;;;;;;;6.20;4.90;;;24.80;99.90;;;;;;5088047;28;20175;-73
2021/07/27 12:57:29;;;;;;;1.70;1.60;;;24.90;99.90;;;;;;5082559;28;20186;-73
2021/07/27 12:59:54;;;;;;;2.80;2.53;;;25.00;99.90;;;;;;5085354;28;20465;-73
2021/07/27 13:02:23;;;;;;;4.33;3.83;;;25.20;99.90;;;;;;5089838;28;20200;-73
2021/07/27 13:04:49;;;;;;;3.67;3.33;;;25.30;99.90;;;;;;5088673;28;20178;-73
2021/07/27 13:07:14;;;;;;;8.33;3.97;;;25.50;99.90;;;;;;5085752;28;20433;-73
2021/07/27 13:09:40;;;;;;;5.03;3.90;;;25.60;98.40;;;;;;5082889;28;20175;-73
2021/07/27 13:12:06;;;;;;;4.30;3.73;;;25.70;98.70;;;;;;5091743;28;20205;-73
2021/07/27 13:14:31;;;;;;;5.43;4.27;;;25.80;97.80;;;;;;5088335;28;20213;-73
2021/07/27 13:17:00;;;;;;;9.80;4.10;;;25.90;97.10;;;;;;5088553;28;20514;-73
2021/07/27 13:19:25;;;;;;;4.70;4.30;;;26.00;97.00;;;;;;5087226;28;20178;-73
2021/07/27 13:21:51;;;;;;;4.30;3.90;;;26.00;97.30;;;;;;5092423;28;20440;-73